sensor_id;sensor_type;location;lat;lon;timestamp;temperature;humidity
11152;DHT22;5630;49.342;10.802;2022-08-03T00:01:30;20.00;99.90
11152;DHT22;5630;49.342;10.802;2022-08-03T00:03:56;19.90;99.90
11152;DHT22;5630;49.342;10.802;2022-08-03T00:06:21;19.90;99.90
11152;DHT22;5630;49.342;10.802;2022-08-03T00:08:47;19.90;99.90
11152;DHT22;5630;49.342;10.802;2022-08-03T00:11:13;19.90;99.90
11152;DHT22;5630;49.342;10.802;2022-08-03T00:13:38;19.80;99.90
11152;DHT22;5630;49.342;10.802;2022-08-03T00:16:04;19.80;99.90
11152;DHT22;5630;49.342;10.802;2022-08-03T00:18:30;19.70;99.90
11152;DHT22;5630;49.342;10.802;2022-08-03T00:20:55;19.70;99.90
11152;DHT22;5630;49.342;10.802;2022-08-03T00:23:21;19.60;99.90
11152;DHT22;5630;49.342;10.802;2022-08-03T00:25:46;19.60;99.90
11152;DHT22;5630;49.342;10.802;2022-08-03T00:28:12;19.60;99.90
11152;DHT22;5630;49.342;10.802;2022-08-03T00:30:38;19.50;99.90
11152;DHT22;5630;49.342;10.802;2022-08-03T00:33:03;19.50;99.90
11152;DHT22;5630;49.342;10.802;2022-08-03T00:35:29;19.50;99.90
11152;DHT22;5630;49.342;10.802;2022-08-03T00:37:55;19.50;99.90
11152;DHT22;5630;49.342;10.802;2022-08-03T00:40:22;19.40;99.90
11152;DHT22;5630;49.342;10.802;2022-08-03T00:43:00;19.40;99.90
11152;DHT22;5630;49.342;10.802;2022-08-03T00:45:31;19.40;99.90
11152;DHT22;5630;49.342;10.802;2022-08-03T00:47:57;19.30;99.90
11152;DHT22;5630;49.342;10.802;2022-08-03T00:50:25;19.30;99.90
11152;DHT22;5630;49.342;10.802;2022-08-03T00:52:52;19.30;99.90
11152;DHT22;5630;49.342;10.802;2022-08-03T00:55:18;19.20;99.90
11152;DHT22;5630;49.342;10.802;2022-08-03T00:57:44;19.20;99.90
11152;DHT22;5630;49.342;10.802;2022-08-03T01:00:11;19.20;99.90
11152;DHT22;5630;49.342;10.802;2022-08-03T01:02:38;19.20;99.90
11152;DHT22;5630;49.342;10.802;2022-08-03T01:05:04;19.20;99.90
11152;DHT22;5630;49.342;10.802;2022-08-03T01:13:06;19.10;99.90
11152;DHT22;5630;49.342;10.802;2022-08-03T01:15:37;19.10;99.90
11152;DHT22;5630;49.342;10.802;2022-08-03T01:18:11;19.00;99.90
11152;DHT22;5630;49.342;10.802;2022-08-03T01:20:43;19.00;99.90
11152;DHT22;5630;49.342;10.802;2022-08-03T01:23:53;18.90;99.90
11152;DHT22;5630;49.342;10.802;2022-08-03T01:26:36;19.00;99.90
11152;DHT22;5630;49.342;10.802;2022-08-03T01:32:07;18.90;99.90
11152;DHT22;5630;49.342;10.802;2022-08-03T01:34:40;18.80;99.90
11152;DHT22;5630;49.342;10.802;2022-08-03T01:37:08;18.80;99.90
11152;DHT22;5630;49.342;10.802;2022-08-03T01:39:36;18.80;99.90
11152;DHT22;5630;49.342;10.802;2022-08-03T01:42:05;18.80;99.90
11152;DHT22;5630;49.342;10.802;2022-08-03T01:44:38;18.70;99.90
11152;DHT22;5630;49.342;10.802;2022-08-03T01:47:06;18.70;99.90
11152;DHT22;5630;49.342;10.802;2022-08-03T01:49:37;18.70;99.90
11152;DHT22;5630;49.342;10.802;2022-08-03T01:52:04;18.60;99.90
11152;DHT22;5630;49.342;10.802;2022-08-03T01:54:34;18.60;99.90
11152;DHT22;5630;49.342;10.802;2022-08-03T01:57:01;18.60;99.90
11152;DHT22;5630;49.342;10.802;2022-08-03T01:59:28;18.50;99.90
11152;DHT22;5630;49.342;10.802;2022-08-03T02:01:56;18.50;99.90
11152;DHT22;5630;49.342;10.802;2022-08-03T02:04:24;18.50;99.90
11152;DHT22;5630;49.342;10.802;2022-08-03T02:06:53;18.40;99.90
11152;DHT22;5630;49.342;10.802;2022-08-03T02:09:20;18.40;99.90
11152;DHT22;5630;49.342;10.802;2022-08-03T02:11:48;18.40;99.90
11152;DHT22;5630;49.342;10.802;2022-08-03T02:14:15;18.40;99.90
11152;DHT22;5630;49.342;10.802;2022-08-03T02:16:42;18.30;99.90
11152;DHT22;5630;49.342;10.802;2022-08-03T02:19:09;18.30;99.90
11152;DHT22;5630;49.342;10.802;2022-08-03T02:21:36;18.30;99.90
11152;DHT22;5630;49.342;10.802;2022-08-03T02:24:03;18.30;99.90
11152;DHT22;5630;49.342;10.802;2022-08-03T02:26:30;18.20;99.90
11152;DHT22;5630;49.342;10.802;2022-08-03T02:28:59;18.20;99.90
11152;DHT22;5630;49.342;10.802;2022-08-03T02:31:28;18.20;99.90
11152;DHT22;5630;49.342;10.802;2022-08-03T02:34:08;18.20;99.90
11152;DHT22;5630;49.342;10.802;2022-08-03T02:36:37;18.10;99.90
11152;DHT22;5630;49.342;10.802;2022-08-03T02:39:05;18.10;99.90
11152;DHT22;5630;49.342;10.802;2022-08-03T02:41:36;18.10;99.90
11152;DHT22;5630;49.342;10.802;2022-08-03T02:44:07;18.10;99.90
11152;DHT22;5630;49.342;10.802;2022-08-03T02:46:37;18.10;99.90
11152;DHT22;5630;49.342;10.802;2022-08-03T02:49:04;18.10;99.90
11152;DHT22;5630;49.342;10.802;2022-08-03T02:51:34;17.90;99.90
11152;DHT22;5630;49.342;10.802;2022-08-03T02:54:02;17.90;99.90
11152;DHT22;5630;49.342;10.802;2022-08-03T02:56:28;17.90;99.90
11152;DHT22;5630;49.342;10.802;2022-08-03T02:58:55;17.90;99.90
11152;DHT22;5630;49.342;10.802;2022-08-03T03:01:24;17.80;99.90
11152;DHT22;5630;49.342;10.802;2022-08-03T03:03:51;17.80;99.90
11152;DHT22;5630;49.342;10.802;2022-08-03T03:06:18;17.80;99.90
11152;DHT22;5630;49.342;10.802;2022-08-03T03:08:45;17.70;99.90
11152;DHT22;5630;49.342;10.802;2022-08-03T03:11:13;17.60;99.90
11152;DHT22;5630;49.342;10.802;2022-08-03T03:13:42;17.60;99.90
11152;DHT22;5630;49.342;10.802;2022-08-03T03:16:11;17.50;99.90
11152;DHT22;5630;49.342;10.802;2022-08-03T03:18:38;17.50;99.90
11152;DHT22;5630;49.342;10.802;2022-08-03T03:21:06;17.40;99.90
11152;DHT22;5630;49.342;10.802;2022-08-03T03:23:36;17.40;99.90
11152;DHT22;5630;49.342;10.802;2022-08-03T03:26:03;17.40;99.90
11152;DHT22;5630;49.342;10.802;2022-08-03T03:28:30;17.40;99.90
11152;DHT22;5630;49.342;10.802;2022-08-03T03:30:56;17.40;99.90
11152;DHT22;5630;49.342;10.802;2022-08-03T03:33:22;17.40;99.90
11152;DHT22;5630;49.342;10.802;2022-08-03T03:35:48;17.40;99.90
11152;DHT22;5630;49.342;10.802;2022-08-03T03:38:14;17.40;99.90
11152;DHT22;5630;49.342;10.802;2022-08-03T03:40:40;17.40;99.90
11152;DHT22;5630;49.342;10.802;2022-08-03T03:43:07;17.40;99.90
11152;DHT22;5630;49.342;10.802;2022-08-03T03:45:33;17.40;99.90
11152;DHT22;5630;49.342;10.802;2022-08-03T03:48:01;17.40;99.90
11152;DHT22;5630;49.342;10.802;2022-08-03T03:50:30;17.40;99.90
11152;DHT22;5630;49.342;10.802;2022-08-03T03:52:56;17.40;99.90
11152;DHT22;5630;49.342;10.802;2022-08-03T03:55:22;17.40;99.90
11152;DHT22;5630;49.342;10.802;2022-08-03T03:57:47;17.30;99.90
11152;DHT22;5630;49.342;10.802;2022-08-03T04:00:14;17.30;99.90
11152;DHT22;5630;49.342;10.802;2022-08-03T04:02:40;17.30;99.90
11152;DHT22;5630;49.342;10.802;2022-08-03T04:05:07;17.30;99.90
11152;DHT22;5630;49.342;10.802;2022-08-03T04:08:05;17.20;99.90
11152;DHT22;5630;49.342;10.802;2022-08-03T04:16:19;17.30;99.90
11152;DHT22;5630;49.342;10.802;2022-08-03T04:18:50;17.30;99.90
11152;DHT22;5630;49.342;10.802;2022-08-03T04:21:19;17.30;99.90
11152;DHT22;5630;49.342;10.802;2022-08-03T04:23:48;17.30;99.90
11152;DHT22;5630;49.342;10.802;2022-08-03T04:26:19;17.20;99.90
11152;DHT22;5630;49.342;10.802;2022-08-03T04:28:46;17.20;99.90
11152;DHT22;5630;49.342;10.802;2022-08-03T04:31:14;17.20;99.90
11152;DHT22;5630;49.342;10.802;2022-08-03T04:33:41;17.20;99.90
11152;DHT22;5630;49.342;10.802;2022-08-03T04:36:10;17.20;99.90
11152;DHT22;5630;49.342;10.802;2022-08-03T04:38:40;17.20;99.90
11152;DHT22;5630;49.342;10.802;2022-08-03T04:41:07;17.20;99.90
11152;DHT22;5630;49.342;10.802;2022-08-03T04:43:33;17.20;99.90
11152;DHT22;5630;49.342;10.802;2022-08-03T04:46:00;17.20;99.90
11152;DHT22;5630;49.342;10.802;2022-08-03T04:48:27;17.30;99.90
11152;DHT22;5630;49.342;10.802;2022-08-03T04:50:53;17.20;99.90
11152;DHT22;5630;49.342;10.802;2022-08-03T04:53:18;17.20;99.90
11152;DHT22;5630;49.342;10.802;2022-08-03T04:55:44;17.30;99.90
11152;DHT22;5630;49.342;10.802;2022-08-03T04:58:09;17.30;99.90
11152;DHT22;5630;49.342;10.802;2022-08-03T05:00:36;17.20;99.90
11152;DHT22;5630;49.342;10.802;2022-08-03T05:03:02;17.30;99.90
11152;DHT22;5630;49.342;10.802;2022-08-03T05:05:28;17.30;99.90
11152;DHT22;5630;49.342;10.802;2022-08-03T05:07:53;17.30;99.90
11152;DHT22;5630;49.342;10.802;2022-08-03T05:10:20;17.30;99.90
11152;DHT22;5630;49.342;10.802;2022-08-03T05:12:47;17.40;99.90
11152;DHT22;5630;49.342;10.802;2022-08-03T05:15:13;17.40;99.90
11152;DHT22;5630;49.342;10.802;2022-08-03T05:17:39;17.40;99.90
11152;DHT22;5630;49.342;10.802;2022-08-03T05:20:05;17.80;99.90
11152;DHT22;5630;49.342;10.802;2022-08-03T05:22:31;18.10;99.90
11152;DHT22;5630;49.342;10.802;2022-08-03T05:24:56;18.30;99.90
11152;DHT22;5630;49.342;10.802;2022-08-03T05:27:22;18.60;99.90
11152;DHT22;5630;49.342;10.802;2022-08-03T05:29:49;18.80;99.90
11152;DHT22;5630;49.342;10.802;2022-08-03T05:32:16;19.00;99.90
11152;DHT22;5630;49.342;10.802;2022-08-03T05:34:42;19.10;99.90
11152;DHT22;5630;49.342;10.802;2022-08-03T05:37:08;19.30;99.90
11152;DHT22;5630;49.342;10.802;2022-08-03T05:39:34;19.40;99.90
11152;DHT22;5630;49.342;10.802;2022-08-03T05:42:00;19.50;99.90
11152;DHT22;5630;49.342;10.802;2022-08-03T05:44:26;19.60;99.90
11152;DHT22;5630;49.342;10.802;2022-08-03T05:46:52;19.70;99.90
11152;DHT22;5630;49.342;10.802;2022-08-03T05:49:18;19.80;99.90
11152;DHT22;5630;49.342;10.802;2022-08-03T05:51:44;19.80;99.90
11152;DHT22;5630;49.342;10.802;2022-08-03T05:54:10;19.90;99.90
11152;DHT22;5630;49.342;10.802;2022-08-03T05:56:35;19.90;99.90
11152;DHT22;5630;49.342;10.802;2022-08-03T05:59:01;20.00;99.90
11152;DHT22;5630;49.342;10.802;2022-08-03T06:01:27;20.00;99.90
11152;DHT22;5630;49.342;10.802;2022-08-03T06:03:52;20.10;99.90
11152;DHT22;5630;49.342;10.802;2022-08-03T06:06:18;20.10;99.90
11152;DHT22;5630;49.342;10.802;2022-08-03T06:08:45;20.20;99.90
11152;DHT22;5630;49.342;10.802;2022-08-03T06:11:11;20.20;99.90
11152;DHT22;5630;49.342;10.802;2022-08-03T06:13:37;20.30;99.90
11152;DHT22;5630;49.342;10.802;2022-08-03T06:16:03;20.40;99.90
11152;DHT22;5630;49.342;10.802;2022-08-03T06:18:29;20.50;99.90
11152;DHT22;5630;49.342;10.802;2022-08-03T06:20:54;20.50;99.90
11152;DHT22;5630;49.342;10.802;2022-08-03T06:23:20;20.60;99.90
11152;DHT22;5630;49.342;10.802;2022-08-03T06:25:46;20.80;99.90
11152;DHT22;5630;49.342;10.802;2022-08-03T06:28:12;20.90;99.90
11152;DHT22;5630;49.342;10.802;2022-08-03T06:30:43;21.00;99.90
11152;DHT22;5630;49.342;10.802;2022-08-03T06:33:08;21.10;99.90
11152;DHT22;5630;49.342;10.802;2022-08-03T06:35:34;21.30;99.90
11152;DHT22;5630;49.342;10.802;2022-08-03T06:38:00;21.40;99.90
11152;DHT22;5630;49.342;10.802;2022-08-03T06:40:25;21.50;99.90
11152;DHT22;5630;49.342;10.802;2022-08-03T06:43:01;21.70;99.90
11152;DHT22;5630;49.342;10.802;2022-08-03T06:45:27;21.90;99.90
11152;DHT22;5630;49.342;10.802;2022-08-03T06:50:29;22.30;99.90
11152;DHT22;5630;49.342;10.802;2022-08-03T06:52:55;22.40;99.90
11152;DHT22;5630;49.342;10.802;2022-08-03T06:55:20;22.60;99.90
11152;DHT22;5630;49.342;10.802;2022-08-03T06:57:46;22.70;99.90
11152;DHT22;5630;49.342;10.802;2022-08-03T07:00:12;22.90;99.90
11152;DHT22;5630;49.342;10.802;2022-08-03T07:02:39;23.10;99.90
11152;DHT22;5630;49.342;10.802;2022-08-03T07:05:05;23.20;99.90
11152;DHT22;5630;49.342;10.802;2022-08-03T07:07:31;23.40;99.90
11152;DHT22;5630;49.342;10.802;2022-08-03T07:09:56;23.60;99.90
11152;DHT22;5630;49.342;10.802;2022-08-03T07:12:22;23.80;99.90
11152;DHT22;5630;49.342;10.802;2022-08-03T07:14:47;24.00;99.90
11152;DHT22;5630;49.342;10.802;2022-08-03T07:17:13;24.30;99.90
11152;DHT22;5630;49.342;10.802;2022-08-03T07:19:38;24.40;99.90
11152;DHT22;5630;49.342;10.802;2022-08-03T07:22:04;24.60;99.90
11152;DHT22;5630;49.342;10.802;2022-08-03T07:24:30;24.80;99.90
11152;DHT22;5630;49.342;10.802;2022-08-03T07:26:56;25.00;99.90
11152;DHT22;5630;49.342;10.802;2022-08-03T07:29:21;25.30;99.90
11152;DHT22;5630;49.342;10.802;2022-08-03T07:31:47;25.40;99.90
11152;DHT22;5630;49.342;10.802;2022-08-03T07:34:13;25.50;99.90
11152;DHT22;5630;49.342;10.802;2022-08-03T07:36:38;25.80;99.90
11152;DHT22;5630;49.342;10.802;2022-08-03T07:39:04;25.90;99.90
11152;DHT22;5630;49.342;10.802;2022-08-03T07:41:29;26.20;99.90
11152;DHT22;5630;49.342;10.802;2022-08-03T07:43:56;26.30;99.90
11152;DHT22;5630;49.342;10.802;2022-08-03T07:46:22;26.40;99.90
11152;DHT22;5630;49.342;10.802;2022-08-03T07:48:47;26.70;99.90
11152;DHT22;5630;49.342;10.802;2022-08-03T07:51:13;26.90;99.90
11152;DHT22;5630;49.342;10.802;2022-08-03T07:53:38;27.10;99.90
11152;DHT22;5630;49.342;10.802;2022-08-03T07:56:04;27.30;99.90
11152;DHT22;5630;49.342;10.802;2022-08-03T07:58:30;27.30;99.90
11152;DHT22;5630;49.342;10.802;2022-08-03T08:00:55;27.60;99.90
11152;DHT22;5630;49.342;10.802;2022-08-03T08:03:21;27.60;99.90
11152;DHT22;5630;49.342;10.802;2022-08-03T08:05:47;27.90;99.90
11152;DHT22;5630;49.342;10.802;2022-08-03T08:08:13;28.10;99.90
11152;DHT22;5630;49.342;10.802;2022-08-03T08:10:38;28.30;99.90
11152;DHT22;5630;49.342;10.802;2022-08-03T08:13:04;28.50;99.90
11152;DHT22;5630;49.342;10.802;2022-08-03T08:15:30;28.50;99.90
11152;DHT22;5630;49.342;10.802;2022-08-03T08:17:58;28.70;99.90
11152;DHT22;5630;49.342;10.802;2022-08-03T08:20:34;28.80;99.90
11152;DHT22;5630;49.342;10.802;2022-08-03T08:23:04;29.00;99.90
11152;DHT22;5630;49.342;10.802;2022-08-03T08:25:31;29.10;99.90
11152;DHT22;5630;49.342;10.802;2022-08-03T08:27:57;29.40;99.90
11152;DHT22;5630;49.342;10.802;2022-08-03T08:30:26;29.50;99.90
11152;DHT22;5630;49.342;10.802;2022-08-03T08:32:52;29.70;99.90
11152;DHT22;5630;49.342;10.802;2022-08-03T08:35:18;29.90;98.20
11152;DHT22;5630;49.342;10.802;2022-08-03T08:37:44;30.10;99.90
11152;DHT22;5630;49.342;10.802;2022-08-03T08:40:10;30.30;98.10
11152;DHT22;5630;49.342;10.802;2022-08-03T08:42:39;30.20;99.50
11152;DHT22;5630;49.342;10.802;2022-08-03T08:45:05;30.50;99.30
11152;DHT22;5630;49.342;10.802;2022-08-03T08:47:35;30.60;99.90
11152;DHT22;5630;49.342;10.802;2022-08-03T08:50:02;30.70;98.10
11152;DHT22;5630;49.342;10.802;2022-08-03T08:52:29;30.70;96.20
11152;DHT22;5630;49.342;10.802;2022-08-03T08:54:56;30.60;97.00
11152;DHT22;5630;49.342;10.802;2022-08-03T08:57:34;30.80;98.50
11152;DHT22;5630;49.342;10.802;2022-08-03T09:00:04;31.00;97.30
11152;DHT22;5630;49.342;10.802;2022-08-03T09:02:30;31.00;95.00
11152;DHT22;5630;49.342;10.802;2022-08-03T09:04:57;31.20;96.10
11152;DHT22;5630;49.342;10.802;2022-08-03T09:07:23;31.30;96.60
11152;DHT22;5630;49.342;10.802;2022-08-03T09:09:48;31.40;96.40
11152;DHT22;5630;49.342;10.802;2022-08-03T09:12:14;31.60;96.40
11152;DHT22;5630;49.342;10.802;2022-08-03T09:14:39;31.80;95.40
11152;DHT22;5630;49.342;10.802;2022-08-03T09:17:05;31.60;92.40
11152;DHT22;5630;49.342;10.802;2022-08-03T09:19:32;32.10;92.60
11152;DHT22;5630;49.342;10.802;2022-08-03T09:22:12;32.00;93.70
11152;DHT22;5630;49.342;10.802;2022-08-03T09:27:19;32.00;93.10
11152;DHT22;5630;49.342;10.802;2022-08-03T09:29:49;31.80;93.30
11152;DHT22;5630;49.342;10.802;2022-08-03T09:32:22;32.00;92.50
11152;DHT22;5630;49.342;10.802;2022-08-03T09:34:49;32.30;91.50
11152;DHT22;5630;49.342;10.802;2022-08-03T09:37:17;32.00;90.70
11152;DHT22;5630;49.342;10.802;2022-08-03T09:39:43;32.00;91.40
11152;DHT22;5630;49.342;10.802;2022-08-03T09:44:45;32.00;91.30
11152;DHT22;5630;49.342;10.802;2022-08-03T09:47:13;31.70;90.60
11152;DHT22;5630;49.342;10.802;2022-08-03T09:49:40;32.20;91.70
11152;DHT22;5630;49.342;10.802;2022-08-03T09:52:17;32.40;91.60
11152;DHT22;5630;49.342;10.802;2022-08-03T09:54:44;32.90;90.80
11152;DHT22;5630;49.342;10.802;2022-08-03T09:57:25;32.80;87.60
11152;DHT22;5630;49.342;10.802;2022-08-03T09:59:52;32.80;87.00
11152;DHT22;5630;49.342;10.802;2022-08-03T10:02:24;33.00;90.00
11152;DHT22;5630;49.342;10.802;2022-08-03T10:04:50;33.20;87.30
11152;DHT22;5630;49.342;10.802;2022-08-03T10:07:18;33.40;88.80
11152;DHT22;5630;49.342;10.802;2022-08-03T10:10:01;33.20;83.80
11152;DHT22;5630;49.342;10.802;2022-08-03T10:12:27;33.30;84.40
11152;DHT22;5630;49.342;10.802;2022-08-03T10:14:54;33.60;87.90
11152;DHT22;5630;49.342;10.802;2022-08-03T10:17:20;33.50;87.10
11152;DHT22;5630;49.342;10.802;2022-08-03T10:19:47;33.70;88.50
11152;DHT22;5630;49.342;10.802;2022-08-03T10:22:15;34.00;86.80
11152;DHT22;5630;49.342;10.802;2022-08-03T10:27:41;33.80;82.70
11152;DHT22;5630;49.342;10.802;2022-08-03T10:30:11;33.80;84.20
11152;DHT22;5630;49.342;10.802;2022-08-03T10:32:47;34.20;85.00
11152;DHT22;5630;49.342;10.802;2022-08-03T10:35:18;34.30;82.30
11152;DHT22;5630;49.342;10.802;2022-08-03T10:37:51;34.50;80.80
11152;DHT22;5630;49.342;10.802;2022-08-03T10:40:21;34.60;81.00
11152;DHT22;5630;49.342;10.802;2022-08-03T10:42:49;34.80;82.80
11152;DHT22;5630;49.342;10.802;2022-08-03T10:45:20;34.70;78.80
11152;DHT22;5630;49.342;10.802;2022-08-03T10:47:48;34.60;79.70
11152;DHT22;5630;49.342;10.802;2022-08-03T10:50:15;34.30;73.20
11152;DHT22;5630;49.342;10.802;2022-08-03T10:53:01;34.20;74.10
11152;DHT22;5630;49.342;10.802;2022-08-03T10:55:38;34.20;75.20
11152;DHT22;5630;49.342;10.802;2022-08-03T11:01:11;34.20;78.00
11152;DHT22;5630;49.342;10.802;2022-08-03T11:06:23;34.50;78.30
11152;DHT22;5630;49.342;10.802;2022-08-03T11:11:40;34.50;78.90
11152;DHT22;5630;49.342;10.802;2022-08-03T11:14:07;34.80;76.80
11152;DHT22;5630;49.342;10.802;2022-08-03T11:16:39;34.90;76.60
11152;DHT22;5630;49.342;10.802;2022-08-03T11:19:12;35.10;79.10
11152;DHT22;5630;49.342;10.802;2022-08-03T11:35:21;35.30;78.40
11152;DHT22;5630;49.342;10.802;2022-08-03T11:43:07;35.30;69.70
11152;DHT22;5630;49.342;10.802;2022-08-03T11:45:34;35.20;71.10
11152;DHT22;5630;49.342;10.802;2022-08-03T11:48:12;35.30;72.10
11152;DHT22;5630;49.342;10.802;2022-08-03T11:50:39;35.40;71.90
11152;DHT22;5630;49.342;10.802;2022-08-03T11:53:06;35.60;71.90
11152;DHT22;5630;49.342;10.802;2022-08-03T11:55:32;35.60;68.10
11152;DHT22;5630;49.342;10.802;2022-08-03T11:58:00;35.70;72.50
11152;DHT22;5630;49.342;10.802;2022-08-03T12:00:27;35.80;71.30
11152;DHT22;5630;49.342;10.802;2022-08-03T12:02:57;35.90;69.50
11152;DHT22;5630;49.342;10.802;2022-08-03T12:05:41;36.10;67.40
11152;DHT22;5630;49.342;10.802;2022-08-03T12:08:09;35.60;69.00
11152;DHT22;5630;49.342;10.802;2022-08-03T12:10:36;35.50;70.10
11152;DHT22;5630;49.342;10.802;2022-08-03T12:13:02;35.70;70.50
11152;DHT22;5630;49.342;10.802;2022-08-03T12:15:31;35.70;66.60
11152;DHT22;5630;49.342;10.802;2022-08-03T12:18:01;35.70;67.80
11152;DHT22;5630;49.342;10.802;2022-08-03T12:20:28;35.40;68.20
11152;DHT22;5630;49.342;10.802;2022-08-03T12:23:01;35.50;67.10
11152;DHT22;5630;49.342;10.802;2022-08-03T12:25:27;35.60;68.60
11152;DHT22;5630;49.342;10.802;2022-08-03T12:28:09;35.70;68.30
11152;DHT22;5630;49.342;10.802;2022-08-03T12:30:38;35.60;66.70
11152;DHT22;5630;49.342;10.802;2022-08-03T12:33:53;35.30;66.70
11152;DHT22;5630;49.342;10.802;2022-08-03T12:36:04;35.30;67.00
11152;DHT22;5630;49.342;10.802;2022-08-03T12:38:31;35.40;68.90
11152;DHT22;5630;49.342;10.802;2022-08-03T12:41:06;35.20;66.30
11152;DHT22;5630;49.342;10.802;2022-08-03T12:43:33;35.40;66.10
11152;DHT22;5630;49.342;10.802;2022-08-03T12:46:13;35.50;66.70
11152;DHT22;5630;49.342;10.802;2022-08-03T12:51:23;35.60;65.50
11152;DHT22;5630;49.342;10.802;2022-08-03T12:53:53;35.70;67.10
11152;DHT22;5630;49.342;10.802;2022-08-03T12:56:18;35.80;67.60
11152;DHT22;5630;49.342;10.802;2022-08-03T12:58:45;35.80;67.30
11152;DHT22;5630;49.342;10.802;2022-08-03T13:01:12;35.80;66.80
11152;DHT22;5630;49.342;10.802;2022-08-03T13:03:39;35.70;66.20
11152;DHT22;5630;49.342;10.802;2022-08-03T13:06:13;35.50;66.30
11152;DHT22;5630;49.342;10.802;2022-08-03T13:08:40;35.60;67.40
11152;DHT22;5630;49.342;10.802;2022-08-03T13:11:25;35.90;68.90
11152;DHT22;5630;49.342;10.802;2022-08-03T13:13:53;35.70;65.30
11152;DHT22;5630;49.342;10.802;2022-08-03T13:16:20;35.90;67.00
11152;DHT22;5630;49.342;10.802;2022-08-03T13:18:47;35.90;66.60
11152;DHT22;5630;49.342;10.802;2022-08-03T13:21:14;35.70;66.00
11152;DHT22;5630;49.342;10.802;2022-08-03T13:23:41;35.60;64.40
11152;DHT22;5630;49.342;10.802;2022-08-03T13:26:07;35.60;65.40
11152;DHT22;5630;49.342;10.802;2022-08-03T13:28:33;35.60;66.20
11152;DHT22;5630;49.342;10.802;2022-08-03T13:30:58;35.40;64.90
11152;DHT22;5630;49.342;10.802;2022-08-03T13:33:26;35.50;64.90
11152;DHT22;5630;49.342;10.802;2022-08-03T13:35:52;35.80;66.50
11152;DHT22;5630;49.342;10.802;2022-08-03T13:38:18;35.60;64.70
11152;DHT22;5630;49.342;10.802;2022-08-03T13:40:43;35.60;65.10
11152;DHT22;5630;49.342;10.802;2022-08-03T13:43:09;35.40;65.50
11152;DHT22;5630;49.342;10.802;2022-08-03T13:45:35;35.40;63.80
11152;DHT22;5630;49.342;10.802;2022-08-03T13:48:00;35.50;64.90
11152;DHT22;5630;49.342;10.802;2022-08-03T13:50:26;35.50;66.50
11152;DHT22;5630;49.342;10.802;2022-08-03T13:52:51;35.50;65.50
11152;DHT22;5630;49.342;10.802;2022-08-03T13:55:17;35.60;65.60
11152;DHT22;5630;49.342;10.802;2022-08-03T13:57:42;35.70;65.30
11152;DHT22;5630;49.342;10.802;2022-08-03T14:00:09;35.60;62.60
11152;DHT22;5630;49.342;10.802;2022-08-03T14:02:34;35.60;63.90
11152;DHT22;5630;49.342;10.802;2022-08-03T14:05:00;35.50;63.90
11152;DHT22;5630;49.342;10.802;2022-08-03T14:07:26;35.20;62.60
11152;DHT22;5630;49.342;10.802;2022-08-03T14:09:51;35.00;63.60
11152;DHT22;5630;49.342;10.802;2022-08-03T14:12:17;35.10;64.70
11152;DHT22;5630;49.342;10.802;2022-08-03T14:14:42;35.10;64.70
11152;DHT22;5630;49.342;10.802;2022-08-03T14:17:08;35.30;66.30
11152;DHT22;5630;49.342;10.802;2022-08-03T14:19:33;35.40;65.70
11152;DHT22;5630;49.342;10.802;2022-08-03T14:21:59;35.30;62.20
11152;DHT22;5630;49.342;10.802;2022-08-03T14:24:24;35.10;62.50
11152;DHT22;5630;49.342;10.802;2022-08-03T14:26:50;35.00;64.60
11152;DHT22;5630;49.342;10.802;2022-08-03T14:29:16;35.20;63.00
11152;DHT22;5630;49.342;10.802;2022-08-03T14:31:41;35.10;63.90
11152;DHT22;5630;49.342;10.802;2022-08-03T14:34:07;35.10;64.40
11152;DHT22;5630;49.342;10.802;2022-08-03T14:36:32;34.80;61.60
11152;DHT22;5630;49.342;10.802;2022-08-03T14:38:58;34.60;61.30
11152;DHT22;5630;49.342;10.802;2022-08-03T14:41:23;34.70;62.80
11152;DHT22;5630;49.342;10.802;2022-08-03T14:43:49;34.60;63.70
11152;DHT22;5630;49.342;10.802;2022-08-03T14:46:16;34.60;65.90
11152;DHT22;5630;49.342;10.802;2022-08-03T14:48:41;34.60;64.40
11152;DHT22;5630;49.342;10.802;2022-08-03T14:51:07;34.40;62.40
11152;DHT22;5630;49.342;10.802;2022-08-03T14:53:33;34.40;64.00
11152;DHT22;5630;49.342;10.802;2022-08-03T14:55:59;34.50;63.10
11152;DHT22;5630;49.342;10.802;2022-08-03T14:58:24;34.60;62.30
11152;DHT22;5630;49.342;10.802;2022-08-03T15:00:52;34.40;62.60
11152;DHT22;5630;49.342;10.802;2022-08-03T15:03:18;34.20;64.00
11152;DHT22;5630;49.342;10.802;2022-08-03T15:05:47;34.30;64.60
11152;DHT22;5630;49.342;10.802;2022-08-03T15:08:13;34.30;63.40
11152;DHT22;5630;49.342;10.802;2022-08-03T15:10:39;34.00;62.10
11152;DHT22;5630;49.342;10.802;2022-08-03T15:13:04;34.20;63.40
11152;DHT22;5630;49.342;10.802;2022-08-03T15:15:30;34.10;61.90
11152;DHT22;5630;49.342;10.802;2022-08-03T15:17:56;34.00;63.90
11152;DHT22;5630;49.342;10.802;2022-08-03T15:20:21;34.20;63.00
11152;DHT22;5630;49.342;10.802;2022-08-03T15:22:47;34.20;62.60
11152;DHT22;5630;49.342;10.802;2022-08-03T15:25:12;34.10;62.60
11152;DHT22;5630;49.342;10.802;2022-08-03T15:27:38;34.10;62.60
11152;DHT22;5630;49.342;10.802;2022-08-03T15:30:04;34.10;63.90
11152;DHT22;5630;49.342;10.802;2022-08-03T15:32:31;34.10;61.90
11152;DHT22;5630;49.342;10.802;2022-08-03T15:34:57;34.10;62.50
11152;DHT22;5630;49.342;10.802;2022-08-03T15:37:23;34.10;64.40
11152;DHT22;5630;49.342;10.802;2022-08-03T15:39:49;33.80;62.70
11152;DHT22;5630;49.342;10.802;2022-08-03T15:42:15;33.80;63.50
11152;DHT22;5630;49.342;10.802;2022-08-03T15:44:40;33.80;64.40
11152;DHT22;5630;49.342;10.802;2022-08-03T15:47:06;33.70;63.80
11152;DHT22;5630;49.342;10.802;2022-08-03T15:49:31;33.70;64.80
11152;DHT22;5630;49.342;10.802;2022-08-03T15:51:57;33.50;64.10
11152;DHT22;5630;49.342;10.802;2022-08-03T15:54:23;33.50;64.10
11152;DHT22;5630;49.342;10.802;2022-08-03T15:56:49;33.40;64.10
11152;DHT22;5630;49.342;10.802;2022-08-03T15:59:15;33.40;64.10
11152;DHT22;5630;49.342;10.802;2022-08-03T16:01:40;33.30;64.30
11152;DHT22;5630;49.342;10.802;2022-08-03T16:04:06;33.30;63.30
11152;DHT22;5630;49.342;10.802;2022-08-03T16:06:32;33.30;64.20
11152;DHT22;5630;49.342;10.802;2022-08-03T16:08:57;33.30;63.40
11152;DHT22;5630;49.342;10.802;2022-08-03T16:11:23;33.30;64.00
11152;DHT22;5630;49.342;10.802;2022-08-03T16:13:49;33.20;63.30
11152;DHT22;5630;49.342;10.802;2022-08-03T16:16:15;33.20;62.80
11152;DHT22;5630;49.342;10.802;2022-08-03T16:18:40;33.10;63.90
11152;DHT22;5630;49.342;10.802;2022-08-03T16:21:06;33.10;63.20
11152;DHT22;5630;49.342;10.802;2022-08-03T16:23:32;33.00;64.40
11152;DHT22;5630;49.342;10.802;2022-08-03T16:26:00;32.90;65.30
11152;DHT22;5630;49.342;10.802;2022-08-03T16:28:26;32.80;63.30